Ana Sayfa
METAR-TAF:

METAR-TAF

Havaalanları :

Fort Worth, Teksas, Amerika Birleşik Devletleri

Enlem: 32-58-24N, Boylam: 097-19-05W, yükseklik: 220 m

Güncel hava durumu gözlemi

Rapor saat 13:53 UTC de 25 dakika önce yapıldı.
Rüzgar güneydan 10 kt
Sıcaklık 30°C
Nem 70%
Basınç 1014 hPa
Görüş mesafesi: 16.1 km
2000 ft yükseklikte az bulutlu
25000 ft yükseklikte az bulutlu

METAR: KAFW 251353Z 18010KT 10SM FEW020 FEW250 30/24 A2994 RMK AO2 SLP120 T03000244

Saat: 09:18 (14:18 UTC)

Tahmin

Rapor saat 13:42 UTC de 36 dakika önce yapıldı.
Ayın 25'si saat 14 UTC'den ayın 26'si saat 12 UTC'ye kadar geçerli Tahmin
Rüzgar güneydan 12 kt
Görüş mesafesi: 10 km
2500 ft yükseklikte az bulutlu
25000 ft yükseklikte parçalı bulutlu
Geçici
ayın 25'si saat 14 UTC'den ayın 25'si saat 15 UTC'ye kadar
1500 ft yükseklikte parçalı çok bulutlu

TAF: KAFW 251342Z 2514/2612 18012KT P6SM FEW025 SCT250 TEMPO 2514/2515 BKN015

4.000'den fazla havaalanı için hava durumu gözlemleri ve tahminleri (METAR ve TAF raporları).

Kullanılabilir istasyonlar harita üzerinde sarı ve kırmızı noktalarla gösterilir.

İstasyonun adını görmek için fareyi noktanın üzerinde gezdirin.

Sonrasında hava gözlem ve tahminlerini görmek için tıklayın.

Haritayı değiştirmek için: yaklaştırmak için siyah artı işaretli yeşil düğmeye ve uzaklaştırmak için de eksi işaretli düğmeye hızla tıklayın; bitişik haritalar için yeşil okları kullanın.


METAR-TAF: